Time;durP1;ratioP1;P1;durP2;ratioP2;P2;SDS_P1;SDS_P2;PMS_P1;PMS_P2;Temp;Humidity;BMP_temperature;BMP_pressure;BME280_temperature;BME280_humidity;BME280_pressure;Samples;Min_cycle;Max_cycle;Signal;HPM_P1;HPM_P2
2022/03/12 00:02:02;;;;;;;36.13;13.30;;;;;;;4.48;32.20;100724.81;4356056;79;44485;-79
2022/03/12 00:08:05;;;;;;;39.73;15.03;;;;;;;4.23;32.47;100717.38;4369028;79;44497;-78
2022/03/12 00:14:07;;;;;;;44.05;13.93;;;;;;;4.29;32.46;100709.28;4388626;79;44464;-79
2022/03/12 00:20:16;;;;;;;45.70;16.73;;;;;;;3.96;33.05;100718.20;4362917;79;43778;-79
2022/03/12 00:26:15;;;;;;;40.97;16.30;;;;;;;4.00;32.97;100711.59;4386047;79;28487;-79
2022/03/12 00:32:16;;;;;;;42.73;14.98;;;;;;;4.04;33.06;100711.66;4351631;80;44521;-77
2022/03/12 00:38:21;;;;;;;45.20;16.20;;;;;;;3.80;33.64;100709.51;4414217;79;44021;-79
2022/03/12 00:44:22;;;;;;;46.45;17.50;;;;;;;4.25;33.07;100699.92;4355486;80;28512;-78
2022/03/12 00:50:24;;;;;;;50.05;16.23;;;;;;;4.13;33.07;100695.28;4357140;80;43762;-78
2022/03/12 00:56:25;;;;;;;46.90;16.70;;;;;;;3.98;33.66;100696.27;4374366;79;43807;-79
2022/03/12 01:02:26;;;;;;;44.18;15.03;;;;;;;4.23;33.43;100691.26;4481079;78;44456;-79
2022/03/12 01:08:30;;;;;;;43.87;15.65;;;;;;;4.45;33.25;100697.50;4357565;80;43721;-78
2022/03/12 01:14:31;;;;;;;46.60;16.77;;;;;;;4.26;33.38;100693.10;4392269;79;43794;-78
2022/03/12 01:20:33;;;;;;;50.08;18.25;;;;;;;4.24;33.61;100700.41;4392976;79;43779;-78
2022/03/12 01:26:40;;;;;;;43.83;16.32;;;;;;;4.41;33.55;100694.77;4412845;79;44457;-78
2022/03/12 01:32:40;;;;;;;52.10;18.12;;;;;;;3.26;35.17;100704.74;4389650;79;43425;-77
2022/03/12 01:38:49;;;;;;;47.38;16.87;;;;;;;2.83;36.41;100700.20;4416226;79;43796;-78
2022/03/12 01:44:51;;;;;;;51.92;17.87;;;;;;;2.85;36.34;100699.57;4439918;78;43991;-77
2022/03/12 01:50:52;;;;;;;46.58;18.90;;;;;;;2.93;36.06;100698.39;4437378;78;43787;-78
2022/03/12 01:56:56;;;;;;;44.73;16.05;;;;;;;2.78;36.67;100692.65;4472124;78;43708;-77
2022/03/12 02:02:58;;;;;;;48.30;17.27;;;;;;;2.75;36.08;100684.97;4436871;78;43804;-77
2022/03/12 02:09:00;;;;;;;47.55;17.42;;;;;;;2.64;36.68;100672.17;4438414;78;43782;-77
2022/03/12 02:15:01;;;;;;;51.77;18.20;;;;;;;2.77;36.37;100658.63;4442671;78;43779;-79
2022/03/12 02:21:03;;;;;;;50.05;19.35;;;;;;;2.63;36.60;100647.08;4418780;78;43808;-79
2022/03/12 02:27:10;;;;;;;46.88;17.45;;;;;;;2.89;36.04;100649.18;4430701;78;43801;-78
2022/03/12 02:33:13;;;;;;;46.23;17.07;;;;;;;2.70;36.30;100653.52;4396305;80;43760;-78
2022/03/12 02:39:14;;;;;;;48.28;17.80;;;;;;;2.86;35.91;100644.98;4401423;79;43791;-76
2022/03/12 02:45:16;;;;;;;44.67;15.60;;;;;;;2.76;36.62;100650.78;4407749;79;43767;-76
2022/03/12 02:51:20;;;;;;;52.20;19.57;;;;;;;2.76;36.67;100645.47;4392128;79;44183;-76
2022/03/12 02:57:25;;;;;;;55.00;19.87;;;;;;;2.72;36.96;100647.56;4363496;79;28539;-77
2022/03/12 03:03:25;;;;;;;44.90;15.85;;;;;;;2.67;37.13;100649.82;4383358;79;43770;-77
2022/03/12 03:09:27;;;;;;;42.93;16.67;;;;;;;2.70;37.27;100651.33;4365361;79;44505;-77
2022/03/12 03:15:28;;;;;;;49.65;18.23;;;;;;;2.63;37.52;100648.40;4393747;79;43800;-78
2022/03/12 03:21:30;;;;;;;44.58;17.55;;;;;;;2.59;37.45;100655.80;4394817;79;43835;-79
2022/03/12 03:27:31;;;;;;;54.67;19.77;;;;;;;2.58;37.43;100647.48;4399268;79;44134;-79
2022/03/12 03:33:33;;;;;;;50.75;19.17;;;;;;;2.32;37.94;100643.20;4385884;79;43714;-79
2022/03/12 03:39:34;;;;;;;43.52;15.88;;;;;;;2.46;37.71;100656.56;4363350;79;44467;-77
2022/03/12 03:45:36;;;;;;;48.70;18.35;;;;;;;2.53;37.54;100649.73;4353456;79;43797;-78
2022/03/12 03:51:42;;;;;;;46.80;17.62;;;;;;;2.59;37.60;100659.78;4352293;79;43792;-76
2022/03/12 03:57:41;;;;;;;46.50;16.93;;;;;;;2.21;37.92;100659.59;4394524;79;43829;-77
2022/03/12 04:03:51;;;;;;;47.83;18.10;;;;;;;1.90;38.30;100654.84;4356265;80;43789;-77
2022/03/12 04:09:53;;;;;;;49.60;18.17;;;;;;;2.25;38.11;100650.06;4362692;80;43809;-76
2022/03/12 04:15:59;;;;;;;54.57;16.83;;;;;;;2.26;38.15;100650.41;4354818;80;34067;-76
2022/03/12 04:22:01;;;;;;;41.15;16.40;;;;;;;1.76;38.73;100650.75;4348199;80;44491;-76
2022/03/12 04:28:02;;;;;;;43.20;16.25;;;;;;;1.80;38.87;100650.82;4370080;80;44513;-76
2022/03/12 04:34:04;;;;;;;47.33;16.50;;;;;;;1.88;38.68;100653.64;4337369;80;43807;-76
2022/03/12 04:40:11;;;;;;;46.42;16.62;;;;;;;3.30;36.66;100641.84;4366166;80;43789;-77
2022/03/12 04:46:13;;;;;;;42.85;16.07;;;;;;;0.81;40.50;100656.04;4330254;80;44511;-76
2022/03/12 04:52:14;;;;;;;42.67;16.00;;;;;;;1.22;39.94;100648.25;4359378;80;44453;-78
2022/03/12 04:58:16;;;;;;;44.88;15.75;;;;;;;1.14;40.11;100640.11;4367111;79;44032;-76
2022/03/12 05:04:17;;;;;;;45.38;16.52;;;;;;;1.23;40.10;100641.98;4369957;79;43770;-76
2022/03/12 05:10:19;;;;;;;45.85;17.82;;;;;;;1.04;40.42;100639.56;4375875;79;43791;-75
2022/03/12 05:16:21;;;;;;;52.25;17.37;;;;;;;1.16;40.63;100635.52;4378190;79;43457;-75
2022/03/12 05:22:23;;;;;;;48.35;16.80;;;;;;;1.05;41.04;100643.06;4399727;79;43816;-75
2022/03/12 05:28:30;;;;;;;44.93;17.70;;;;;;;1.24;40.89;100644.48;4391388;79;43834;-77
2022/03/12 05:34:32;;;;;;;40.10;14.95;;;;;;;1.36;40.59;100643.11;4390453;79;44615;-73
2022/03/12 05:40:39;;;;;;;48.80;18.37;;;;;;;1.28;40.92;100648.22;4401602;79;43778;-73
2022/03/12 05:46:39;;;;;;;49.13;17.15;;;;;;;1.57;40.48;100632.45;4392515;79;43774;-72
2022/03/12 05:52:47;;;;;;;47.40;16.40;;;;;;;1.47;41.09;100631.56;4371954;79;43877;-75
2022/03/12 05:58:48;;;;;;;47.58;17.85;;;;;;;1.42;41.30;100642.56;4382970;79;43747;-75
2022/03/12 06:04:49;;;;;;;45.43;17.20;;;;;;;1.68;40.78;100639.48;4375808;79;43757;-76
2022/03/12 06:10:54;;;;;;;43.50;16.05;;;;;;;1.97;40.32;100624.13;4389095;79;44508;-82
2022/03/12 06:16:55;;;;;;;;;;;;;;;2.23;39.63;100627.63;4370876;79;28468;-79
2022/03/12 06:22:57;;;;;;;40.52;16.90;;;;;;;2.60;39.32;100623.46;4385515;79;44493;-81
2022/03/12 06:28:59;;;;;;;40.92;16.05;;;;;;;2.86;38.34;100621.07;4390658;79;44482;-81
2022/03/12 06:35:01;;;;;;;45.70;16.10;;;;;;;2.79;38.53;100616.81;4373864;79;43775;-79
2022/03/12 06:41:05;;;;;;;43.05;16.60;;;;;;;3.35;37.81;100626.79;4372410;79;44447;-80
2022/03/12 06:47:08;;;;;;;46.35;17.92;;;;;;;3.44;37.48;100629.06;4440572;78;43814;-75
2022/03/12 06:53:10;;;;;;;45.38;17.98;;;;;;;3.36;37.60;100635.11;4379298;81;43776;-79
2022/03/12 06:59:11;;;;;;;42.75;16.30;;;;;;;3.83;37.28;100632.89;4352087;81;44451;-78
2022/03/12 07:05:13;;;;;;;43.48;16.80;;;;;;;4.22;36.56;100629.17;4360339;81;44491;-79
2022/03/12 07:11:17;;;;;;;42.27;16.10;;;;;;;3.97;37.20;100630.72;4336235;80;44487;-75
2022/03/12 07:17:19;;;;;;;37.67;15.80;;;;;;;4.18;36.48;100629.96;4347763;80;44516;-73
2022/03/12 07:23:20;;;;;;;39.10;15.08;;;;;;;4.59;35.62;100629.55;4421808;78;44505;-75
2022/03/12 07:29:22;;;;;;;32.63;13.05;;;;;;;6.80;32.15;100612.69;4431733;79;44149;-75
2022/03/12 07:35:25;;;;;;;38.38;13.90;;;;;;;6.48;32.05;100620.53;4361234;80;44438;-76
2022/03/12 07:41:27;;;;;;;31.35;12.45;;;;;;;6.07;32.76;100633.28;4340057;81;43736;-77
2022/03/12 07:47:28;;;;;;;31.23;13.32;;;;;;;6.83;31.22;100623.06;4356951;80;43754;-76
2022/03/12 07:53:30;;;;;;;29.45;11.60;;;;;;;6.93;31.41;100629.08;4349045;80;43418;-75
2022/03/12 07:59:32;;;;;;;37.38;12.30;;;;;;;6.72;30.77;100628.72;4375146;80;44491;-77
2022/03/12 08:05:34;;;;;;;25.95;10.58;;;;;;;6.76;31.33;100630.08;4356432;80;42911;-76
2022/03/12 08:11:35;;;;;;;24.72;9.95;;;;;;;6.71;30.78;100621.22;4391825;79;42918;-78
2022/03/12 08:17:37;;;;;;;25.23;10.23;;;;;;;7.05;30.04;100612.69;4453806;78;42860;-81
2022/03/12 08:23:40;;;;;;;22.07;9.80;;;;;;;7.07;29.59;100614.69;4443613;78;44474;-75
2022/03/12 08:29:44;;;;;;;24.65;9.20;;;;;;;7.39;29.28;100608.45;4452869;78;43933;-76
2022/03/12 08:35:48;;;;;;;22.37;9.33;;;;;;;7.58;28.67;100609.03;4449905;78;43921;-76
2022/03/12 08:41:49;;;;;;;20.62;10.08;;;;;;;7.72;28.85;100602.64;4451363;78;44505;-77
2022/03/12 08:47:51;;;;;;;23.30;9.48;;;;;;;7.85;28.31;100611.44;4348632;81;43965;-76
2022/03/12 08:53:52;;;;;;;21.00;9.68;;;;;;;8.41;27.92;100607.27;4343686;80;44296;-78
2022/03/12 08:59:54;;;;;;;19.07;8.23;;;;;;;8.32;27.49;100607.84;4338514;81;44008;-78
2022/03/12 09:05:55;;;;;;;20.08;9.15;;;;;;;8.37;27.40;100604.11;4436194;78;44012;-76
2022/03/12 09:11:56;;;;;;;20.00;9.05;;;;;;;8.65;26.84;100610.31;4349992;80;43969;-76
2022/03/12 09:17:58;;;;;;;17.30;7.67;;;;;;;7.12;28.55;100627.03;4329064;80;43973;-77
2022/03/12 09:23:59;;;;;;;21.17;8.23;;;;;;;6.95;28.32;100627.06;4339901;80;43942;-78
2022/03/12 09:30:00;;;;;;;16.48;8.28;;;;;;;6.85;28.96;100607.69;4353395;81;43938;-76
2022/03/12 09:36:03;;;;;;;19.10;8.55;;;;;;;7.11;28.94;100606.64;4348086;81;43965;-76
2022/03/12 09:42:07;;;;;;;17.70;7.72;;;;;;;7.33;28.76;100600.23;4334990;81;28485;-76
2022/03/12 09:48:09;;;;;;;21.93;9.68;;;;;;;7.54;28.77;100597.02;4342246;80;43950;-76
2022/03/12 09:54:11;;;;;;;20.23;9.10;;;;;;;7.59;29.39;100587.13;4341725;80;43918;-76
2022/03/12 10:00:15;;;;;;;20.65;9.30;;;;;;;7.66;28.55;100568.86;4344307;81;28547;-77
2022/03/12 10:06:17;;;;;;;17.12;8.20;;;;;;;7.69;28.55;100565.00;4354659;81;43968;-82
2022/03/12 10:12:20;;;;;;;19.90;8.33;;;;;;;7.83;28.28;100554.06;4335936;81;43957;-85
2022/03/12 10:18:22;;;;;;;18.87;8.68;;;;;;;7.70;27.91;100553.77;4335940;81;43918;-82
2022/03/12 10:24:25;;;;;;;21.07;8.65;;;;;;;7.92;28.72;100548.14;4364823;81;43989;-81
2022/03/12 10:30:26;;;;;;;23.42;10.93;;;;;;;8.03;28.22;100537.55;4327075;81;43705;-84
2022/03/12 10:36:33;;;;;;;18.65;8.38;;;;;;;8.04;28.32;100529.31;4348075;81;28531;-87
2022/03/12 10:42:39;;;;;;;18.70;8.95;;;;;;;8.06;28.28;100526.47;4365583;81;28504;-80
2022/03/12 10:48:40;;;;;;;19.07;8.87;;;;;;;8.21;27.82;100518.50;4365721;81;28500;-79
2022/03/12 10:54:41;;;;;;;21.65;9.83;;;;;;;8.95;26.73;100505.46;4357208;80;28568;-79
2022/03/12 11:01:01;;;;;;;19.05;8.53;;;;;;;10.23;25.21;100490.84;4343570;80;28520;-81
2022/03/12 11:07:27;;;;;;;19.77;8.40;;;;;;;10.51;24.56;100485.52;4359845;81;28558;-76
2022/03/12 11:13:40;;;;;;;16.87;7.95;;;;;;;10.51;24.33;100477.45;4359539;81;28506;-81
2022/03/12 11:19:43;;;;;;;15.85;6.83;;;;;;;10.88;24.08;100470.06;4359168;81;28474;-78
2022/03/12 11:25:58;;;;;;;16.48;7.53;;;;;;;11.15;23.26;100474.22;4339279;81;28596;-77
2022/03/12 11:32:09;;;;;;;15.65;7.12;;;;;;;11.38;23.43;100458.80;4341342;81;28491;-77
2022/03/12 11:38:22;;;;;;;13.25;6.65;;;;;;;11.49;23.12;100448.78;4352227;81;28480;-77
2022/03/12 11:44:23;;;;;;;14.23;6.78;;;;;;;11.03;23.47;100444.88;4353651;80;28568;-80
2022/03/12 11:50:28;;;;;;;15.35;6.15;;;;;;;11.40;22.90;100435.19;4339662;81;28942;-80
2022/03/12 11:56:32;;;;;;;13.10;6.42;;;;;;;11.78;22.22;100434.67;4336001;81;28551;-80
2022/03/12 12:02:36;;;;;;;11.78;5.37;;;;;;;11.90;21.35;100417.89;4336481;80;28523;-80
2022/03/12 12:08:37;;;;;;;11.80;5.80;;;;;;;11.81;21.97;100423.47;4340307;81;28452;-83
2022/03/12 12:14:41;;;;;;;14.63;5.72;;;;;;;11.97;21.65;100415.50;4325000;82;28544;-81
2022/03/12 12:20:45;;;;;;;12.82;5.72;;;;;;;11.84;21.11;100411.45;4329459;82;28511;-81
2022/03/12 12:26:57;;;;;;;12.63;5.62;;;;;;;12.13;20.35;100401.32;4332393;80;28527;-86
2022/03/12 12:33:03;;;;;;;10.35;5.10;;;;;;;11.90;20.64;100397.14;4334171;82;28551;-82
2022/03/12 12:39:14;;;;;;;10.07;5.27;;;;;;;11.91;20.71;100391.25;4338484;80;28549;-82
2022/03/12 12:45:22;;;;;;;12.13;5.17;;;;;;;12.19;20.16;100380.81;4306224;82;28577;-82
2022/03/12 12:51:30;;;;;;;;;;;;;;;12.24;19.31;100384.54;4349453;82;28562;-83
2022/03/12 12:57:50;;;;;;;11.10;5.22;;;;;;;12.40;19.10;100381.92;4341219;81;20220;-84
2022/03/12 13:03:55;;;;;;;8.23;3.98;;;;;;;12.46;19.76;100371.31;4337894;80;28535;-79
2022/03/12 13:10:00;;;;;;;9.55;4.17;;;;;;;11.85;19.65;100376.73;4358094;80;28578;-79
2022/03/12 13:16:06;;;;;;;9.53;3.60;;;;;;;12.02;19.20;100373.14;4357085;80;28509;-81
2022/03/12 13:22:14;;;;;;;6.58;3.42;;;;;;;12.62;18.83;100368.17;4375474;79;28493;-84
2022/03/12 13:28:41;;;;;;;6.83;3.55;;;;;;;12.47;17.94;100368.42;4388890;79;28496;-83
2022/03/12 13:34:43;;;;;;;7.83;3.65;;;;;;;13.06;17.88;100356.26;4377309;79;28555;-82
2022/03/12 13:40:45;;;;;;;7.25;3.35;;;;;;;13.13;17.79;100340.56;4346294;80;28539;-87
2022/03/12 13:46:50;;;;;;;7.95;3.22;;;;;;;12.86;16.72;100350.12;4374838;80;28476;-81
2022/03/12 13:52:57;;;;;;;9.40;3.37;;;;;;;12.72;17.08;100342.08;4368756;80;28481;-82
2022/03/12 13:59:07;;;;;;;7.13;3.33;;;;;;;12.93;16.65;100331.53;4380303;79;33423;-81
2022/03/12 14:05:09;;;;;;;7.65;3.12;;;;;;;11.74;17.34;100335.59;4397907;79;28543;-81
2022/03/12 14:11:32;;;;;;;7.50;3.27;;;;;;;13.11;16.83;100307.85;4381679;79;28518;-82
2022/03/12 14:17:35;;;;;;;8.45;3.37;;;;;;;12.94;16.88;100304.84;4395020;79;28543;-82
2022/03/12 14:23:37;;;;;;;5.83;3.27;;;;;;;12.50;17.61;100293.81;4396622;79;28500;-82
2022/03/12 14:29:41;;;;;;;8.18;3.52;;;;;;;12.62;17.60;100291.28;4380818;79;28575;-85
2022/03/12 14:35:42;;;;;;;7.20;3.30;;;;;;;12.97;17.59;100290.09;4389908;79;29146;-82
2022/03/12 14:41:46;;;;;;;7.15;3.45;;;;;;;12.83;17.96;100287.44;4405446;79;28489;-83
2022/03/12 14:47:48;;;;;;;10.10;3.72;;;;;;;12.94;17.59;100281.05;4392299;79;28547;-82
2022/03/12 14:53:56;;;;;;;6.62;3.15;;;;;;;12.70;17.59;100280.77;4395242;79;28456;-81
2022/03/12 14:59:58;;;;;;;9.98;3.90;;;;;;;10.80;18.80;100294.50;4380409;79;28549;-79
2022/03/12 15:06:00;;;;;;;6.97;3.15;;;;;;;10.57;19.06;100291.13;4380728;79;28503;-82
2022/03/12 15:12:17;;;;;;;6.15;3.50;;;;;;;10.51;19.09;100283.00;4380559;80;28449;-86
2022/03/12 15:18:20;;;;;;;7.72;3.50;;;;;;;10.76;19.36;100277.92;4376536;80;28554;-83
2022/03/12 15:24:38;;;;;;;6.42;3.40;;;;;;;10.91;20.68;100274.27;4390871;80;28575;-80
2022/03/12 15:30:42;;;;;;;7.15;3.17;;;;;;;10.62;19.79;100270.86;4369943;80;28550;-82
2022/03/12 15:36:51;;;;;;;8.03;3.20;;;;;;;10.56;19.51;100263.89;4372896;79;28541;-81
2022/03/12 15:42:52;;;;;;;5.70;2.80;;;;;;;10.37;19.52;100261.94;4382134;79;28523;-78
2022/03/12 15:48:56;;;;;;;5.72;2.83;;;;;;;10.38;19.53;100252.31;4396413;80;28469;-78
2022/03/12 15:54:58;;;;;;;6.45;3.20;;;;;;;10.40;19.22;100257.50;4378556;80;28527;-77
2022/03/12 16:01:00;;;;;;;7.17;2.75;;;;;;;10.36;19.07;100256.22;4412754;80;28548;-79
2022/03/12 16:07:03;;;;;;;6.25;2.85;;;;;;;10.44;19.08;100254.74;4410383;80;28511;-81
2022/03/12 16:13:04;;;;;;;6.97;2.90;;;;;;;10.21;19.72;100262.56;4405664;80;28540;-81
2022/03/12 16:19:06;;;;;;;7.33;2.85;;;;;;;10.17;19.96;100266.16;4394211;80;28561;-82
2022/03/12 16:25:13;;;;;;;6.00;2.50;;;;;;;10.71;19.33;100254.32;4415664;80;28458;-82
2022/03/12 16:31:14;;;;;;;8.03;2.98;;;;;;;11.23;18.94;100255.16;4414647;80;28552;-84
2022/03/12 16:37:16;;;;;;;7.17;3.40;;;;;;;11.57;19.17;100255.18;4418519;80;28472;-83
2022/03/12 16:43:21;;;;;;;7.55;2.95;;;;;;;11.67;19.46;100256.94;4423154;80;28517;-84
2022/03/12 16:49:21;;;;;;;5.40;2.83;;;;;;;11.63;19.67;100253.02;4372893;81;28499;-86
2022/03/12 16:55:22;;;;;;;8.08;3.33;;;;;;;11.75;19.68;100241.06;4368811;81;28478;-83
2022/03/12 17:01:24;;;;;;;10.35;3.67;;;;;;;11.71;19.87;100241.19;4367631;80;28567;-86
2022/03/12 17:07:25;;;;;;;9.18;3.55;;;;;;;11.52;19.94;100246.38;4384017;80;28477;-86
2022/03/12 17:13:28;;;;;;;7.55;3.67;;;;;;;11.47;20.05;100234.56;4363143;79;28527;-91
2022/03/12 17:19:29;;;;;;;8.15;3.58;;;;;;;11.53;20.11;100239.13;4379281;80;28507;-91
2022/03/12 17:25:33;;;;;;;6.42;3.37;;;;;;;11.32;20.22;100238.31;4394278;79;28437;-91
2022/03/12 17:31:35;;;;;;;10.10;3.77;;;;;;;11.08;20.55;100245.11;4377609;81;28495;-85
2022/03/12 17:37:37;;;;;;;13.58;4.25;;;;;;;10.99;20.68;100241.26;4377134;79;28919;-87
2022/03/12 17:43:39;;;;;;;7.95;3.45;;;;;;;11.11;20.90;100242.00;4379509;80;28528;-85
2022/03/12 17:49:40;;;;;;;9.28;4.03;;;;;;;10.95;20.91;100235.14;4385210;80;28509;-79
2022/03/12 17:55:42;;;;;;;12.85;4.80;;;;;;;10.55;21.29;100235.34;4361578;80;28536;-84
2022/03/12 18:01:43;;;;;;;8.58;3.42;;;;;;;10.57;21.45;100239.19;4364620;80;28517;-82
2022/03/12 18:07:45;;;;;;;9.05;3.65;;;;;;;10.33;22.24;100242.16;4377834;80;28526;-85
2022/03/12 18:13:48;;;;;;;12.70;3.65;;;;;;;10.16;22.50;100247.57;4376957;80;28556;-77
2022/03/12 18:19:50;;;;;;;8.83;3.30;;;;;;;9.86;22.51;100249.95;4375948;79;28601;-88
2022/03/12 18:25:52;;;;;;;11.90;4.20;;;;;;;9.64;23.00;100251.89;4377104;80;28548;-83
2022/03/12 18:31:54;;;;;;;10.05;4.17;;;;;;;9.58;23.17;100247.28;4366030;80;28553;-83
2022/03/12 18:37:58;;;;;;;10.88;4.05;;;;;;;9.26;23.49;100252.99;4367330;80;28548;-81
2022/03/12 18:44:00;;;;;;;11.05;4.28;;;;;;;9.10;23.75;100253.27;4385281;80;28521;-86
2022/03/12 18:50:02;;;;;;;13.20;4.58;;;;;;;8.90;23.86;100260.09;4384996;80;28519;-85
2022/03/12 18:56:05;;;;;;;14.60;5.83;;;;;;;8.68;24.29;100255.70;4363480;80;43905;-82
2022/03/12 19:02:06;;;;;;;15.53;6.08;;;;;;;8.14;24.76;100250.98;4373033;80;28525;-83
2022/03/12 19:08:07;;;;;;;12.65;5.28;;;;;;;8.18;24.98;100249.61;4364832;80;28476;-89
2022/03/12 19:14:11;;;;;;;15.40;6.08;;;;;;;8.19;25.16;100244.05;4382640;80;43949;-84
2022/03/12 19:20:15;;;;;;;17.90;6.60;;;;;;;8.16;25.16;100240.41;4374570;80;28547;-85
2022/03/12 19:26:18;;;;;;;15.00;4.40;;;;;;;8.16;25.34;100239.56;4383486;80;43539;-80
2022/03/12 19:32:21;;;;;;;13.68;5.83;;;;;;;7.92;27.24;100244.19;4392547;80;43931;-83
2022/03/12 19:38:22;;;;;;;16.45;5.50;;;;;;;7.66;27.42;100250.83;4345839;80;43998;-83
2022/03/12 19:44:24;;;;;;;14.87;6.12;;;;;;;7.65;27.17;100241.95;4376846;80;43917;-80
2022/03/12 19:50:25;;;;;;;16.95;6.42;;;;;;;7.61;28.01;100240.66;4384140;80;43949;-83
2022/03/12 19:56:30;;;;;;;20.52;8.20;;;;;;;7.42;27.93;100242.51;4378529;80;43909;-88
2022/03/12 20:02:31;;;;;;;18.27;6.50;;;;;;;7.36;28.25;100252.09;4414555;79;43964;-83
2022/03/12 20:08:35;;;;;;;16.57;6.15;;;;;;;7.06;28.76;100258.14;4405106;80;43925;-83
2022/03/12 20:14:37;;;;;;;17.40;6.85;;;;;;;7.27;28.58;100263.34;4408815;81;43929;-91
2022/03/12 20:20:39;;;;;;;16.05;6.47;;;;;;;7.21;28.54;100254.71;4393906;80;43957;-84
2022/03/12 20:26:41;;;;;;;22.85;8.28;;;;;;;7.19;28.82;100251.39;4383601;80;43945;-87
2022/03/12 20:32:44;;;;;;;21.12;8.53;;;;;;;7.24;28.35;100245.83;4406929;80;43953;-87
2022/03/12 20:38:46;;;;;;;23.57;8.30;;;;;;;7.44;27.84;100244.49;4377172;80;43945;-85
2022/03/12 20:44:47;;;;;;;24.72;8.03;;;;;;;7.10;28.03;100251.94;4383199;79;43104;-78
2022/03/12 20:50:49;;;;;;;29.80;10.15;;;;;;;6.51;29.26;100250.12;4404036;80;43424;-85
2022/03/12 20:56:51;;;;;;;26.12;9.68;;;;;;;6.33;29.10;100246.86;4398599;81;42948;-86
2022/03/12 21:02:52;;;;;;;30.15;10.25;;;;;;;6.43;29.23;100244.81;4368248;80;43468;-85
2022/03/12 21:08:53;;;;;;;30.23;11.83;;;;;;;6.50;29.50;100247.61;4444017;79;43405;-87
2022/03/12 21:14:58;;;;;;;33.00;11.65;;;;;;;6.40;29.00;100250.51;4327956;80;43756;-84
2022/03/12 21:20:58;;;;;;;35.48;12.65;;;;;;;6.25;29.17;100250.40;4403631;80;44152;-85
2022/03/12 21:26:59;;;;;;;34.00;12.23;;;;;;;6.21;29.62;100237.07;4383095;80;44091;-75
2022/03/12 21:33:04;;;;;;;38.60;14.10;;;;;;;6.10;30.40;100232.92;4368370;79;44490;-76
2022/03/12 21:39:06;;;;;;;31.62;12.10;;;;;;;5.93;30.87;100242.80;4384582;80;44099;-75
2022/03/12 21:45:08;;;;;;;30.43;12.30;;;;;;;5.91;30.67;100237.61;4384493;80;43366;-79
2022/03/12 21:51:12;;;;;;;25.95;10.23;;;;;;;5.95;31.22;100232.28;4367527;80;42810;-78
2022/03/12 21:57:13;;;;;;;26.12;10.08;;;;;;;5.72;32.20;100226.30;4345437;80;43446;-79
2022/03/12 22:03:17;;;;;;;32.28;12.10;;;;;;;5.55;33.31;100224.69;4380363;80;43759;-78
2022/03/12 22:09:18;;;;;;;34.50;13.30;;;;;;;5.73;32.27;100220.48;4428098;79;44097;-79
2022/03/12 22:15:21;;;;;;;33.83;14.33;;;;;;;5.37;33.42;100226.22;4390697;79;44099;-79
2022/03/12 22:21:25;;;;;;;31.65;12.70;;;;;;;5.65;33.08;100223.16;4387896;81;44060;-80
2022/03/12 22:27:27;;;;;;;38.60;16.67;;;;;;;5.60;33.13;100218.33;4378941;81;44433;-77
2022/03/12 22:33:28;;;;;;;42.73;15.98;;;;;;;5.55;33.40;100221.50;4372409;81;44442;-76
2022/03/12 22:39:30;;;;;;;39.13;15.60;;;;;;;5.78;32.72;100219.48;4388055;81;44466;-76
2022/03/12 22:45:34;;;;;;;46.73;18.30;;;;;;;5.61;32.88;100219.99;4379708;81;43772;-80
2022/03/12 22:51:46;;;;;;;44.25;19.20;;;;;;;5.51;33.91;100221.52;4422929;80;43806;-80
2022/03/12 22:57:48;;;;;;;43.87;18.30;;;;;;;6.27;32.73;100199.81;4441415;80;43755;-81
2022/03/12 23:09:56;;;;;;;48.20;17.60;;;;;;;5.35;33.92;100201.52;4297713;80;43798;-81
2022/03/12 23:15:59;;;;;;;61.05;22.60;;;;;;;5.56;33.50;100197.83;4369448;81;44472;-80
2022/03/12 23:22:01;;;;;;;50.65;20.05;;;;;;;5.42;33.99;100205.19;4362107;81;44016;-81
2022/03/12 23:28:07;;;;;;;49.53;20.70;;;;;;;5.30;34.14;100199.36;4447358;80;44485;-81
2022/03/12 23:34:06;;;;;;;54.50;22.07;;;;;;;5.75;33.59;100199.79;4446161;79;44146;-80
2022/03/12 23:40:09;;;;;;;59.63;24.27;;;;;;;5.62;33.87;100216.32;4439198;80;44120;-79
2022/03/12 23:46:10;;;;;;;60.95;25.40;;;;;;;5.21;34.74;100209.72;4374810;81;43232;-79
2022/03/12 23:52:30;;;;;;;59.90;24.15;;;;;;;5.09;34.82;100211.88;4427465;78;44157;-78
2022/03/12 23:58:31;;;;;;;66.17;25.85;;;;;;;5.06;34.77;100205.55;4335340;80;42889;-79
